sensor_id;sensor_type;location;lat;lon;timestamp;pressure;altitude;pressure_sealevel;temperature;humidity
56518;BME280;42419;48.760;2.322;2022-09-29T00:00:47;99335.75;;;21.21;42.83
56518;BME280;42419;48.760;2.322;2022-09-29T00:03:13;99325.13;;;21.20;43.02
56518;BME280;42419;48.760;2.322;2022-09-29T00:05:38;99292.53;;;21.00;42.99
56518;BME280;42419;48.760;2.322;2022-09-29T00:08:03;99316.47;;;21.16;42.79
56518;BME280;42419;48.760;2.322;2022-09-29T00:10:29;99314.44;;;21.20;42.76
56518;BME280;42419;48.760;2.322;2022-09-29T00:12:54;99310.25;;;21.16;42.64
56518;BME280;42419;48.760;2.322;2022-09-29T00:15:19;99327.72;;;21.21;42.85
56518;BME280;42419;48.760;2.322;2022-09-29T00:17:45;99314.56;;;21.18;42.60
56518;BME280;42419;48.760;2.322;2022-09-29T00:20:10;99322.47;;;21.20;42.65
56518;BME280;42419;48.760;2.322;2022-09-29T00:22:35;99312.03;;;21.15;42.89
56518;BME280;42419;48.760;2.322;2022-09-29T00:25:00;99313.59;;;21.19;42.27
56518;BME280;42419;48.760;2.322;2022-09-29T00:27:26;99290.84;;;21.12;42.49
56518;BME280;42419;48.760;2.322;2022-09-29T00:29:51;99279.03;;;21.02;42.66
56518;BME280;42419;48.760;2.322;2022-09-29T00:32:16;99303.94;;;21.17;42.48
56518;BME280;42419;48.760;2.322;2022-09-29T00:34:42;99311.13;;;21.16;42.21
56518;BME280;42419;48.760;2.322;2022-09-29T00:37:07;99305.00;;;21.14;42.38
56518;BME280;42419;48.760;2.322;2022-09-29T00:39:32;99292.97;;;21.07;42.44
56518;BME280;42419;48.760;2.322;2022-09-29T00:41:58;99307.41;;;21.19;42.44
56518;BME280;42419;48.760;2.322;2022-09-29T00:44:54;99311.97;;;21.17;42.50
56518;BME280;42419;48.760;2.322;2022-09-29T00:47:20;99312.03;;;21.15;42.37
56518;BME280;42419;48.760;2.322;2022-09-29T00:49:59;99295.22;;;21.13;42.08
56518;BME280;42419;48.760;2.322;2022-09-29T00:52:33;99300.31;;;21.18;42.01
56518;BME280;42419;48.760;2.322;2022-09-29T00:55:16;99295.91;;;21.17;42.21
56518;BME280;42419;48.760;2.322;2022-09-29T00:57:52;99290.56;;;21.17;42.14
56518;BME280;42419;48.760;2.322;2022-09-29T01:00:21;99290.56;;;21.17;42.23
56518;BME280;42419;48.760;2.322;2022-09-29T01:02:59;99289.03;;;21.13;42.13
56518;BME280;42419;48.760;2.322;2022-09-29T01:05:32;99294.19;;;21.16;42.14
56518;BME280;42419;48.760;2.322;2022-09-29T01:08:07;99291.50;;;21.16;42.05
56518;BME280;42419;48.760;2.322;2022-09-29T01:10:35;99295.06;;;21.16;42.17
56518;BME280;42419;48.760;2.322;2022-09-29T01:13:00;99287.88;;;21.17;42.17
56518;BME280;42419;48.760;2.322;2022-09-29T01:15:26;99285.28;;;21.15;42.07
56518;BME280;42419;48.760;2.322;2022-09-29T01:17:54;99290.56;;;21.17;42.08
56518;BME280;42419;48.760;2.322;2022-09-29T01:20:20;99287.03;;;21.16;41.99
56518;BME280;42419;48.760;2.322;2022-09-29T01:29:25;99269.44;;;21.12;41.88
56518;BME280;42419;48.760;2.322;2022-09-29T01:40:02;99241.88;;;20.97;42.06
56518;BME280;42419;48.760;2.322;2022-09-29T01:43:02;99275.63;;;21.13;41.95
56518;BME280;42419;48.760;2.322;2022-09-29T01:45:35;99233.63;;;20.88;41.81
56518;BME280;42419;48.760;2.322;2022-09-29T01:48:16;99270.28;;;21.13;42.01
56518;BME280;42419;48.760;2.322;2022-09-29T01:50:49;99249.81;;;20.99;41.97
56518;BME280;42419;48.760;2.322;2022-09-29T01:53:23;99271.53;;;21.07;42.01
56518;BME280;42419;48.760;2.322;2022-09-29T01:55:56;99276.59;;;21.12;41.84
56518;BME280;42419;48.760;2.322;2022-09-29T01:58:31;99280.13;;;21.12;41.83
56518;BME280;42419;48.760;2.322;2022-09-29T02:01:01;99281.00;;;21.13;41.84
56518;BME280;42419;48.760;2.322;2022-09-29T02:03:34;99275.00;;;21.09;41.81
56518;BME280;42419;48.760;2.322;2022-09-29T02:06:03;99285.47;;;21.12;41.87
56518;BME280;42419;48.760;2.322;2022-09-29T02:08:59;99282.81;;;21.12;41.90
56518;BME280;42419;48.760;2.322;2022-09-29T02:11:25;99214.84;;;20.75;41.75
56518;BME280;42419;48.760;2.322;2022-09-29T02:14:16;99147.19;;;20.34;41.65
56518;BME280;42419;48.760;2.322;2022-09-29T02:17:23;99281.94;;;21.12;41.72
56518;BME280;42419;48.760;2.322;2022-09-29T02:19:51;99276.72;;;21.10;41.70
56518;BME280;42419;48.760;2.322;2022-09-29T02:22:17;99264.69;;;21.03;41.69
56518;BME280;42419;48.760;2.322;2022-09-29T02:24:42;99278.41;;;21.11;41.74
56518;BME280;42419;48.760;2.322;2022-09-29T02:27:08;99257.09;;;20.97;41.83
56518;BME280;42419;48.760;2.322;2022-09-29T02:29:34;99283.75;;;21.11;41.64
56518;BME280;42419;48.760;2.322;2022-09-29T02:32:02;99283.75;;;21.11;41.68
56518;BME280;42419;48.760;2.322;2022-09-29T02:34:30;99280.13;;;21.12;41.69
56518;BME280;42419;48.760;2.322;2022-09-29T02:53:10;99263.66;;;21.05;41.56
56518;BME280;42419;48.760;2.322;2022-09-29T02:56:17;99267.91;;;21.08;41.47
56518;BME280;42419;48.760;2.322;2022-09-29T02:59:03;99269.72;;;21.07;41.47
56518;BME280;42419;48.760;2.322;2022-09-29T03:01:32;99273.28;;;21.08;41.59
56518;BME280;42419;48.760;2.322;2022-09-29T03:03:58;99262.00;;;21.03;41.75
56518;BME280;42419;48.760;2.322;2022-09-29T03:06:24;99186.53;;;20.58;41.60
56518;BME280;42419;48.760;2.322;2022-09-29T03:08:49;99260.97;;;21.05;41.61
56518;BME280;42419;48.760;2.322;2022-09-29T03:11:15;99273.28;;;21.08;41.46
56518;BME280;42419;48.760;2.322;2022-09-29T03:13:40;99243.03;;;20.93;41.40
56518;BME280;42419;48.760;2.322;2022-09-29T03:16:06;99262.56;;;21.08;41.56
56518;BME280;42419;48.760;2.322;2022-09-29T03:18:31;99246.16;;;21.00;41.58
56518;BME280;42419;48.760;2.322;2022-09-29T03:20:56;99200.81;;;20.72;41.62
56518;BME280;42419;48.760;2.322;2022-09-29T03:23:22;99249.72;;;21.00;41.28
56518;BME280;42419;48.760;2.322;2022-09-29T03:25:47;99261.72;;;21.07;41.50
56518;BME280;42419;48.760;2.322;2022-09-29T03:28:12;99258.06;;;21.08;41.47
56518;BME280;42419;48.760;2.322;2022-09-29T03:30:38;99240.81;;;21.00;41.49
56518;BME280;42419;48.760;2.322;2022-09-29T03:33:03;99263.44;;;21.08;41.53
56518;BME280;42419;48.760;2.322;2022-09-29T03:35:29;99249.19;;;21.08;40.79
56518;BME280;42419;48.760;2.322;2022-09-29T03:38:00;99234.81;;;20.96;41.44
56518;BME280;42419;48.760;2.322;2022-09-29T03:40:29;99236.63;;;20.96;41.39
56518;BME280;42419;48.760;2.322;2022-09-29T03:42:54;99219.06;;;20.79;41.50
56518;BME280;42419;48.760;2.322;2022-09-29T03:45:19;99181.97;;;20.60;41.47
56518;BME280;42419;48.760;2.322;2022-09-29T03:47:45;99266.50;;;21.02;41.16
56518;BME280;42419;48.760;2.322;2022-09-29T03:50:10;99259.97;;;21.06;41.29
56518;BME280;42419;48.760;2.322;2022-09-29T03:52:36;99262.00;;;21.03;41.50
56518;BME280;42419;48.760;2.322;2022-09-29T03:55:01;99259.88;;;21.08;41.38
56518;BME280;42419;48.760;2.322;2022-09-29T03:57:26;99242.72;;;20.98;41.37
56518;BME280;42419;48.760;2.322;2022-09-29T03:59:52;99246.38;;;20.97;41.33
56518;BME280;42419;48.760;2.322;2022-09-29T04:02:18;99260.75;;;21.08;41.44
56518;BME280;42419;48.760;2.322;2022-09-29T04:04:44;99259.16;;;21.06;41.44
56518;BME280;42419;48.760;2.322;2022-09-29T04:07:10;99262.66;;;21.06;41.38
56518;BME280;42419;48.760;2.322;2022-09-29T04:09:35;99260.75;;;21.08;41.44
56518;BME280;42419;48.760;2.322;2022-09-29T04:12:01;99247.03;;;21.00;41.21
56518;BME280;42419;48.760;2.322;2022-09-29T04:14:26;99244.34;;;21.00;41.39
56518;BME280;42419;48.760;2.322;2022-09-29T04:16:51;99236.81;;;20.93;41.21
56518;BME280;42419;48.760;2.322;2022-09-29T04:19:17;99251.44;;;21.01;41.23
56518;BME280;42419;48.760;2.322;2022-09-29T04:21:42;99201.13;;;20.67;41.35
56518;BME280;42419;48.760;2.322;2022-09-29T04:24:07;99194.81;;;20.68;41.31
56518;BME280;42419;48.760;2.322;2022-09-29T04:26:33;99254.94;;;21.02;41.39
56518;BME280;42419;48.760;2.322;2022-09-29T04:28:58;99267.06;;;21.07;41.36
56518;BME280;42419;48.760;2.322;2022-09-29T04:31:23;99265.47;;;21.05;41.34
56518;BME280;42419;48.760;2.322;2022-09-29T04:33:48;99271.53;;;21.07;41.39
56518;BME280;42419;48.760;2.322;2022-09-29T04:36:14;99275.09;;;21.07;41.55
56518;BME280;42419;48.760;2.322;2022-09-29T04:38:39;99273.38;;;21.06;41.34
56518;BME280;42419;48.760;2.322;2022-09-29T04:41:04;99263.28;;;20.97;41.36
56518;BME280;42419;48.760;2.322;2022-09-29T04:43:30;99276.03;;;21.06;41.28
56518;BME280;42419;48.760;2.322;2022-09-29T04:46:05;99249.25;;;20.94;41.39
56518;BME280;42419;48.760;2.322;2022-09-29T04:48:32;99275.22;;;21.06;41.28
56518;BME280;42419;48.760;2.322;2022-09-29T04:50:57;99262.97;;;21.02;41.24
56518;BME280;42419;48.760;2.322;2022-09-29T04:53:22;99204.00;;;20.64;41.38
56518;BME280;42419;48.760;2.322;2022-09-29T04:55:48;99277.88;;;21.06;41.35
56518;BME280;42419;48.760;2.322;2022-09-29T04:58:13;99277.13;;;21.04;41.14
56518;BME280;42419;48.760;2.322;2022-09-29T05:00:39;99278.72;;;21.06;41.33
56518;BME280;42419;48.760;2.322;2022-09-29T05:03:05;99280.75;;;21.03;41.19
56518;BME280;42419;48.760;2.322;2022-09-29T05:05:30;99283.25;;;21.06;41.38
56518;BME280;42419;48.760;2.322;2022-09-29T05:07:55;99258.34;;;20.91;41.39
56518;BME280;42419;48.760;2.322;2022-09-29T05:10:21;99280.56;;;21.06;41.43
56518;BME280;42419;48.760;2.322;2022-09-29T05:12:47;99252.34;;;20.88;41.48
56518;BME280;42419;48.760;2.322;2022-09-29T05:15:15;99235.59;;;20.72;41.29
56518;BME280;42419;48.760;2.322;2022-09-29T05:17:40;99268.19;;;20.91;41.45
56518;BME280;42419;48.760;2.322;2022-09-29T05:20:06;99263.69;;;20.91;40.91
56518;BME280;42419;48.760;2.322;2022-09-29T05:22:31;99276.25;;;21.03;41.44
56518;BME280;42419;48.760;2.322;2022-09-29T05:24:56;99282.56;;;21.02;41.31
56518;BME280;42419;48.760;2.322;2022-09-29T05:27:22;99284.94;;;21.07;41.48
56518;BME280;42419;48.760;2.322;2022-09-29T05:29:47;99251.28;;;20.90;41.35
56518;BME280;42419;48.760;2.322;2022-09-29T05:32:13;99286.00;;;21.04;40.65
56518;BME280;42419;48.760;2.322;2022-09-29T05:34:38;99284.28;;;21.03;41.52
56518;BME280;42419;48.760;2.322;2022-09-29T05:37:03;99292.22;;;21.05;41.78
56518;BME280;42419;48.760;2.322;2022-09-29T05:39:29;99291.13;;;21.07;41.90
56518;BME280;42419;48.760;2.322;2022-09-29T05:41:58;99290.19;;;21.08;42.28
56518;BME280;42419;48.760;2.322;2022-09-29T05:44:23;99268.53;;;20.99;42.28
56518;BME280;42419;48.760;2.322;2022-09-29T05:46:48;99265.94;;;20.97;42.51
56518;BME280;42419;48.760;2.322;2022-09-29T05:49:14;99268.09;;;20.92;42.35
56518;BME280;42419;48.760;2.322;2022-09-29T05:51:39;99289.25;;;21.09;42.62
56518;BME280;42419;48.760;2.322;2022-09-29T05:54:04;99264.13;;;20.98;42.48
56518;BME280;42419;48.760;2.322;2022-09-29T05:56:30;99302.31;;;21.14;42.26
56518;BME280;42419;48.760;2.322;2022-09-29T05:58:55;99297.81;;;21.15;42.29
56518;BME280;42419;48.760;2.322;2022-09-29T06:01:23;99294.28;;;21.14;42.33
56518;BME280;42419;48.760;2.322;2022-09-29T06:03:49;99304.13;;;21.14;42.54
56518;BME280;42419;48.760;2.322;2022-09-29T06:06:19;99295.63;;;21.07;42.48
56518;BME280;42419;48.760;2.322;2022-09-29T06:08:46;99302.41;;;21.13;42.33
56518;BME280;42419;48.760;2.322;2022-09-29T06:11:22;99297.81;;;21.15;42.34
56518;BME280;42419;48.760;2.322;2022-09-29T06:13:50;99302.31;;;21.14;42.94
56518;BME280;42419;48.760;2.322;2022-09-29T06:16:18;99284.84;;;21.08;42.54
56518;BME280;42419;48.760;2.322;2022-09-29T06:18:44;99282.56;;;21.02;42.74
56518;BME280;42419;48.760;2.322;2022-09-29T06:21:12;99303.09;;;21.16;42.59
56518;BME280;42419;48.760;2.322;2022-09-29T06:23:38;99297.72;;;21.16;42.60
56518;BME280;42419;48.760;2.322;2022-09-29T06:26:09;99283.13;;;21.07;42.56
56518;BME280;42419;48.760;2.322;2022-09-29T06:28:35;99297.72;;;21.16;42.54
56518;BME280;42419;48.760;2.322;2022-09-29T06:31:06;99301.28;;;21.17;42.47
56518;BME280;42419;48.760;2.322;2022-09-29T06:33:33;99309.28;;;21.17;42.47
56518;BME280;42419;48.760;2.322;2022-09-29T06:36:01;99311.19;;;21.15;42.41
56518;BME280;42419;48.760;2.322;2022-09-29T06:38:46;99291.13;;;21.07;42.23
56518;BME280;42419;48.760;2.322;2022-09-29T06:41:11;99314.66;;;21.17;42.21
56518;BME280;42419;48.760;2.322;2022-09-29T06:43:37;99308.53;;;21.15;42.71
56518;BME280;42419;48.760;2.322;2022-09-29T06:46:02;99311.19;;;21.15;42.51
56518;BME280;42419;48.760;2.322;2022-09-29T06:48:28;99314.72;;;21.15;41.96
56518;BME280;42419;48.760;2.322;2022-09-29T06:50:54;99319.22;;;21.15;42.12
56518;BME280;42419;48.760;2.322;2022-09-29T06:53:20;99310.34;;;21.14;42.17
56518;BME280;42419;48.760;2.322;2022-09-29T06:55:51;99313.88;;;21.15;41.98
56518;BME280;42419;48.760;2.322;2022-09-29T06:58:17;99312.56;;;21.07;41.65
56518;BME280;42419;48.760;2.322;2022-09-29T07:00:42;99318.47;;;21.13;41.99
56518;BME280;42419;48.760;2.322;2022-09-29T07:03:07;99325.72;;;21.10;41.98
56518;BME280;42419;48.760;2.322;2022-09-29T07:05:33;99329.94;;;21.15;41.82
56518;BME280;42419;48.760;2.322;2022-09-29T07:07:58;99329.94;;;21.15;41.91
56518;BME280;42419;48.760;2.322;2022-09-29T07:10:24;99322.75;;;21.15;41.95
56518;BME280;42419;48.760;2.322;2022-09-29T07:12:49;99326.31;;;21.16;41.82
56518;BME280;42419;48.760;2.322;2022-09-29T07:15:14;99328.97;;;21.16;42.00
56518;BME280;42419;48.760;2.322;2022-09-29T07:17:40;99329.94;;;21.15;41.81
56518;BME280;42419;48.760;2.322;2022-09-29T07:20:05;99328.09;;;21.15;41.97
56518;BME280;42419;48.760;2.322;2022-09-29T07:22:31;99309.00;;;21.07;42.10
56518;BME280;42419;48.760;2.322;2022-09-29T07:24:57;99325.13;;;21.20;42.01
56518;BME280;42419;48.760;2.322;2022-09-29T07:27:22;99333.94;;;21.22;41.90
56518;BME280;42419;48.760;2.322;2022-09-29T07:29:51;99342.84;;;21.22;42.05
56518;BME280;42419;48.760;2.322;2022-09-29T07:32:17;99344.44;;;21.25;42.05
56518;BME280;42419;48.760;2.322;2022-09-29T07:34:42;99318.38;;;21.14;42.04
56518;BME280;42419;48.760;2.322;2022-09-29T07:37:08;99341.66;;;21.26;41.91
56518;BME280;42419;48.760;2.322;2022-09-29T07:39:33;99346.72;;;21.31;41.92
56518;BME280;42419;48.760;2.322;2022-09-29T07:41:58;99345.00;;;21.30;42.49
56518;BME280;42419;48.760;2.322;2022-09-29T07:44:24;99337.91;;;21.29;44.37
56518;BME280;42419;48.760;2.322;2022-09-29T07:46:49;99337.81;;;21.30;44.91
56518;BME280;42419;48.760;2.322;2022-09-29T07:49:15;99347.69;;;21.42;45.77
56518;BME280;42419;48.760;2.322;2022-09-29T07:51:40;99363.38;;;21.48;45.59
56518;BME280;42419;48.760;2.322;2022-09-29T07:54:06;99362.59;;;21.46;45.65
56518;BME280;42419;48.760;2.322;2022-09-29T07:56:32;99368.63;;;21.50;45.37
56518;BME280;42419;48.760;2.322;2022-09-29T07:58:57;99363.47;;;21.47;45.23
56518;BME280;42419;48.760;2.322;2022-09-29T08:01:23;99371.72;;;21.44;45.06
56518;BME280;42419;48.760;2.322;2022-09-29T08:03:50;99383.84;;;21.49;44.88
56518;BME280;42419;48.760;2.322;2022-09-29T08:06:16;99382.03;;;21.50;44.89
56518;BME280;42419;48.760;2.322;2022-09-29T08:08:42;99393.59;;;21.50;44.82
56518;BME280;42419;48.760;2.322;2022-09-29T08:11:10;99390.91;;;21.50;44.74
56518;BME280;42419;48.760;2.322;2022-09-29T08:13:36;99389.06;;;21.51;44.73
56518;BME280;42419;48.760;2.322;2022-09-29T08:16:04;99371.06;;;21.40;44.63
56518;BME280;42419;48.760;2.322;2022-09-29T08:18:30;99394.88;;;21.58;44.55
56518;BME280;42419;48.760;2.322;2022-09-29T08:20:56;99364.53;;;21.44;44.32
56518;BME280;42419;48.760;2.322;2022-09-29T08:23:22;99402.00;;;21.71;43.80
56518;BME280;42419;48.760;2.322;2022-09-29T08:25:58;99401.38;;;21.80;43.48
56518;BME280;42419;48.760;2.322;2022-09-29T08:28:23;99377.56;;;21.63;43.68
56518;BME280;42419;48.760;2.322;2022-09-29T08:30:49;99392.22;;;21.70;43.27
56518;BME280;42419;48.760;2.322;2022-09-29T08:33:14;99411.75;;;21.72;43.35
56518;BME280;42419;48.760;2.322;2022-09-29T08:35:40;99411.94;;;21.69;43.44
56518;BME280;42419;48.760;2.322;2022-09-29T08:38:06;99409.38;;;21.68;43.43
56518;BME280;42419;48.760;2.322;2022-09-29T08:40:32;99403.34;;;21.64;43.04
56518;BME280;42419;48.760;2.322;2022-09-29T08:43:13;99410.56;;;21.64;43.25
56518;BME280;42419;48.760;2.322;2022-09-29T08:48:38;99411.81;;;21.58;43.25
56518;BME280;42419;48.760;2.322;2022-09-29T08:51:17;99413.63;;;21.58;43.47
56518;BME280;42419;48.760;2.322;2022-09-29T08:53:47;99411.34;;;21.51;43.05
56518;BME280;42419;48.760;2.322;2022-09-29T08:56:16;99427.97;;;21.57;42.96
56518;BME280;42419;48.760;2.322;2022-09-29T08:58:42;99427.34;;;21.53;42.84
56518;BME280;42419;48.760;2.322;2022-09-29T09:04:10;99434.19;;;21.57;42.56
56518;BME280;42419;48.760;2.322;2022-09-29T09:09:33;99428.63;;;21.60;42.41
56518;BME280;42419;48.760;2.322;2022-09-29T09:20:33;99439.81;;;21.67;42.29
56518;BME280;42419;48.760;2.322;2022-09-29T09:23:14;99439.59;;;21.70;42.10
56518;BME280;42419;48.760;2.322;2022-09-29T09:25:51;99441.09;;;21.74;42.05
56518;BME280;42419;48.760;2.322;2022-09-29T09:28:21;99440.25;;;21.73;41.80
56518;BME280;42419;48.760;2.322;2022-09-29T09:30:56;99440.38;;;21.72;41.91
56518;BME280;42419;48.760;2.322;2022-09-29T09:33:33;99441.09;;;21.74;41.74
56518;BME280;42419;48.760;2.322;2022-09-29T09:36:12;99443.28;;;21.81;41.42
56518;BME280;42419;48.760;2.322;2022-09-29T09:38:46;99444.25;;;21.80;41.74
56518;BME280;42419;48.760;2.322;2022-09-29T09:41:18;99444.88;;;21.84;41.52
56518;BME280;42419;48.760;2.322;2022-09-29T09:43:49;99441.16;;;21.86;41.06
56518;BME280;42419;48.760;2.322;2022-09-29T09:49:43;99451.56;;;22.30;40.15
56518;BME280;42419;48.760;2.322;2022-09-29T09:55:03;99438.34;;;22.15;40.10
56518;BME280;42419;48.760;2.322;2022-09-29T10:00:24;99447.47;;;22.63;39.35
56518;BME280;42419;48.760;2.322;2022-09-29T10:02:53;99443.06;;;22.49;38.94
56518;BME280;42419;48.760;2.322;2022-09-29T10:05:22;99429.78;;;22.60;39.07
56518;BME280;42419;48.760;2.322;2022-09-29T10:07:51;99443.44;;;22.57;39.33
56518;BME280;42419;48.760;2.322;2022-09-29T10:10:23;99451.88;;;22.64;39.02
56518;BME280;42419;48.760;2.322;2022-09-29T10:13:13;99452.50;;;22.93;38.28
56518;BME280;42419;48.760;2.322;2022-09-29T10:21:02;99441.66;;;23.07;37.79
56518;BME280;42419;48.760;2.322;2022-09-29T10:26:12;99455.47;;;23.50;36.31
56518;BME280;42419;48.760;2.322;2022-09-29T10:28:58;99442.22;;;23.59;36.44
56518;BME280;42419;48.760;2.322;2022-09-29T10:31:27;99443.22;;;23.69;36.89
56518;BME280;42419;48.760;2.322;2022-09-29T10:34:02;99451.13;;;23.84;35.98
56518;BME280;42419;48.760;2.322;2022-09-29T10:36:48;99428.31;;;23.89;35.90
56518;BME280;42419;48.760;2.322;2022-09-29T10:41:58;99404.88;;;23.91;36.08
56518;BME280;42419;48.760;2.322;2022-09-29T10:44:23;99440.97;;;24.11;35.99
56518;BME280;42419;48.760;2.322;2022-09-29T10:46:55;99442.91;;;23.98;36.13
56518;BME280;42419;48.760;2.322;2022-09-29T10:49:23;99449.88;;;23.77;36.10
56518;BME280;42419;48.760;2.322;2022-09-29T10:52:02;99432.16;;;23.50;36.34
56518;BME280;42419;48.760;2.322;2022-09-29T10:54:30;99432.16;;;23.26;36.37
56518;BME280;42419;48.760;2.322;2022-09-29T10:56:57;99459.63;;;23.30;36.67
56518;BME280;42419;48.760;2.322;2022-09-29T10:59:23;99459.00;;;23.14;36.87
56518;BME280;42419;48.760;2.322;2022-09-29T11:01:58;99469.31;;;23.07;37.03
56518;BME280;42419;48.760;2.322;2022-09-29T11:04:31;99477.22;;;22.98;37.23
56518;BME280;42419;48.760;2.322;2022-09-29T11:07:08;99477.00;;;22.88;37.47
56518;BME280;42419;48.760;2.322;2022-09-29T11:09:40;99480.34;;;22.79;37.78
56518;BME280;42419;48.760;2.322;2022-09-29T11:12:25;99490.94;;;22.68;38.01
56518;BME280;42419;48.760;2.322;2022-09-29T11:14:51;99470.56;;;22.53;38.30
56518;BME280;42419;48.760;2.322;2022-09-29T11:17:21;99497.19;;;22.56;38.22
56518;BME280;42419;48.760;2.322;2022-09-29T11:19:48;99494.88;;;22.50;38.54
56518;BME280;42419;48.760;2.322;2022-09-29T11:25:05;99503.88;;;22.36;38.69
56518;BME280;42419;48.760;2.322;2022-09-29T11:30:20;99514.50;;;22.25;38.61
56518;BME280;42419;48.760;2.322;2022-09-29T11:48:39;99519.06;;;21.83;39.31
56518;BME280;42419;48.760;2.322;2022-09-29T11:51:23;99541.84;;;21.90;39.58
56518;BME280;42419;48.760;2.322;2022-09-29T12:00:08;99547.00;;;21.79;39.65
56518;BME280;42419;48.760;2.322;2022-09-29T12:08:09;99547.53;;;21.72;39.71
56518;BME280;42419;48.760;2.322;2022-09-29T12:10:54;99548.56;;;21.69;39.80
56518;BME280;42419;48.760;2.322;2022-09-29T12:16:01;99550.59;;;21.66;39.65
56518;BME280;42419;48.760;2.322;2022-09-29T12:18:34;99547.06;;;21.65;39.59
56518;BME280;42419;48.760;2.322;2022-09-29T12:21:02;99549.84;;;21.64;39.91
56518;BME280;42419;48.760;2.322;2022-09-29T12:23:29;99530.34;;;21.47;39.95
56518;BME280;42419;48.760;2.322;2022-09-29T12:26:13;99532.16;;;21.47;39.81
56518;BME280;42419;48.760;2.322;2022-09-29T12:28:44;99554.53;;;21.60;39.81
56518;BME280;42419;48.760;2.322;2022-09-29T12:31:27;99552.81;;;21.59;39.88
56518;BME280;42419;48.760;2.322;2022-09-29T12:34:09;99549.38;;;21.57;40.06
56518;BME280;42419;48.760;2.322;2022-09-29T12:37:27;99509.06;;;21.32;39.77
56518;BME280;42419;48.760;2.322;2022-09-29T12:40:05;99515.16;;;21.34;40.03
56518;BME280;42419;48.760;2.322;2022-09-29T12:45:36;99549.66;;;21.52;40.24
56518;BME280;42419;48.760;2.322;2022-09-29T12:48:24;99547.94;;;21.51;40.14
56518;BME280;42419;48.760;2.322;2022-09-29T12:51:07;99542.78;;;21.48;40.47
56518;BME280;42419;48.760;2.322;2022-09-29T12:54:07;99548.06;;;21.50;40.35
56518;BME280;42419;48.760;2.322;2022-09-29T12:56:38;99546.34;;;21.49;40.39
56518;BME280;42419;48.760;2.322;2022-09-29T13:01:35;99543.66;;;21.49;40.45
56518;BME280;42419;48.760;2.322;2022-09-29T13:15:39;99534.84;;;21.47;40.44
56518;BME280;42419;48.760;2.322;2022-09-29T13:29:45;99525.59;;;21.38;40.25
56518;BME280;42419;48.760;2.322;2022-09-29T13:32:13;99543.66;;;21.49;40.57
56518;BME280;42419;48.760;2.322;2022-09-29T13:34:56;99540.97;;;21.49;40.39
56518;BME280;42419;48.760;2.322;2022-09-29T13:37:24;99540.97;;;21.49;40.39
56518;BME280;42419;48.760;2.322;2022-09-29T13:39:57;99542.69;;;21.50;40.44
56518;BME280;42419;48.760;2.322;2022-09-29T13:42:40;99547.94;;;21.51;40.36
56518;BME280;42419;48.760;2.322;2022-09-29T13:50:49;99560.47;;;21.51;40.43
56518;BME280;42419;48.760;2.322;2022-09-29T14:01:02;99550.34;;;21.42;40.45
56518;BME280;42419;48.760;2.322;2022-09-29T14:03:33;99563.25;;;21.49;40.27
56518;BME280;42419;48.760;2.322;2022-09-29T14:06:12;99561.44;;;21.50;40.22
56518;BME280;42419;48.760;2.322;2022-09-29T14:09:13;99569.38;;;21.51;40.31
56518;BME280;42419;48.760;2.322;2022-09-29T14:11:47;99573.97;;;21.49;40.32
56518;BME280;42419;48.760;2.322;2022-09-29T14:14:26;99573.03;;;21.50;40.03
56518;BME280;42419;48.760;2.322;2022-09-29T14:19:47;99575.72;;;21.50;40.22
56518;BME280;42419;48.760;2.322;2022-09-29T14:24:54;99575.00;;;21.47;40.21
56518;BME280;42419;48.760;2.322;2022-09-29T14:27:43;99566.63;;;21.39;40.31
56518;BME280;42419;48.760;2.322;2022-09-29T14:30:36;99589.09;;;21.50;40.29
56518;BME280;42419;48.760;2.322;2022-09-29T14:33:39;99576.44;;;21.52;40.25
56518;BME280;42419;48.760;2.322;2022-09-29T14:36:13;99586.22;;;21.53;40.36
56518;BME280;42419;48.760;2.322;2022-09-29T14:38:42;99587.06;;;21.54;40.19
56518;BME280;42419;48.760;2.322;2022-09-29T14:43:41;99590.78;;;21.66;40.07
56518;BME280;42419;48.760;2.322;2022-09-29T14:51:56;99593.44;;;21.66;39.84
56518;BME280;42419;48.760;2.322;2022-09-29T14:54:42;99587.22;;;21.65;39.74
56518;BME280;42419;48.760;2.322;2022-09-29T15:00:15;99591.44;;;21.69;39.78
56518;BME280;42419;48.760;2.322;2022-09-29T15:02:45;99594.09;;;21.69;39.75
56518;BME280;42419;48.760;2.322;2022-09-29T15:05:32;99594.09;;;21.69;39.81
56518;BME280;42419;48.760;2.322;2022-09-29T15:07:59;99564.13;;;21.50;39.93
56518;BME280;42419;48.760;2.322;2022-09-29T15:12:52;99597.66;;;21.70;39.91
56518;BME280;42419;48.760;2.322;2022-09-29T15:15:40;99592.84;;;21.75;39.80
56518;BME280;42419;48.760;2.322;2022-09-29T15:18:18;99593.50;;;21.78;39.58
56518;BME280;42419;48.760;2.322;2022-09-29T15:20:58;99600.38;;;21.82;39.66
56518;BME280;42419;48.760;2.322;2022-09-29T15:26:16;99582.06;;;21.76;39.59
56518;BME280;42419;48.760;2.322;2022-09-29T15:28:43;99571.72;;;21.70;39.57
56518;BME280;42419;48.760;2.322;2022-09-29T15:31:16;99575.91;;;21.74;39.40
56518;BME280;42419;48.760;2.322;2022-09-29T15:33:43;99611.53;;;21.90;39.58
56518;BME280;42419;48.760;2.322;2022-09-29T15:36:23;99608.84;;;21.90;39.67
56518;BME280;42419;48.760;2.322;2022-09-29T15:39:00;99613.44;;;21.88;39.52
56518;BME280;42419;48.760;2.322;2022-09-29T15:41:29;99613.34;;;21.90;39.58
56518;BME280;42419;48.760;2.322;2022-09-29T15:44:01;99616.97;;;21.89;39.43
56518;BME280;42419;48.760;2.322;2022-09-29T15:46:36;99614.38;;;21.87;39.52
56518;BME280;42419;48.760;2.322;2022-09-29T15:49:04;99618.03;;;21.86;39.58
56518;BME280;42419;48.760;2.322;2022-09-29T15:51:30;99608.84;;;21.76;39.28
56518;BME280;42419;48.760;2.322;2022-09-29T15:53:56;99560.00;;;21.44;39.29
56518;BME280;42419;48.760;2.322;2022-09-29T15:56:24;99616.88;;;21.76;39.50
56518;BME280;42419;48.760;2.322;2022-09-29T15:58:49;99623.97;;;21.77;39.49
56518;BME280;42419;48.760;2.322;2022-09-29T16:01:15;99632.00;;;21.77;39.56
56518;BME280;42419;48.760;2.322;2022-09-29T16:03:46;99604.47;;;21.61;39.57